Time;durP1;ratioP1;P1;durP2;ratioP2;P2;SDS_P1;SDS_P2;PMS_P1;PMS_P2;Temp;Humidity;BMP_temperature;BMP_pressure;BME280_temperature;BME280_humidity;BME280_pressure;Samples;Min_cycle;Max_cycle;Signal;HPM_P1;HPM_P2
2020/12/17 00:02:23;;;;;;;43.10;25.27;;;;;;;;;;736457;185;918966;-65
2020/12/17 00:04:49;;;;;;;46.60;29.00;;;;;;;;;;737511;187;914601;-67
2020/12/17 00:07:15;;;;;;;50.23;28.43;;;;;;;;;;736876;186;1332496;-67
2020/12/17 00:09:41;;;;;;;48.53;27.67;;;;;;;;;;742758;186;919082;-67
2020/12/17 00:12:07;;;;;;;55.30;29.77;;;;;;;;;;746866;186;712025;-65
2020/12/17 00:14:33;;;;;;;46.73;27.80;;;;;;;;;;745466;186;627430;-66
2020/12/17 00:16:58;;;;;;;47.07;28.37;;;;;;;;;;739166;187;919423;-66
2020/12/17 00:19:24;;;;;;;49.00;27.03;;;;;;;;;;745740;186;918802;-66
2020/12/17 00:21:50;;;;;;;44.07;27.47;;;;;;;;;;722856;190;919202;-65
2020/12/17 00:24:16;;;;;;;49.53;27.62;;;;;;;;;;700974;199;919214;-67
2020/12/17 00:26:42;;;;;;;46.37;29.17;;;;;;;;;;744151;186;1080322;-66
2020/12/17 00:29:08;;;;;;;47.93;27.60;;;;;;;;;;729076;190;919053;-66
2020/12/17 00:31:34;;;;;;;49.38;28.45;;;;;;;;;;704775;195;1020833;-67
2020/12/17 00:33:59;;;;;;;47.60;28.37;;;;;;;;;;718985;192;919094;-67
2020/12/17 00:36:25;;;;;;;48.70;28.40;;;;;;;;;;743131;186;919032;-71
2020/12/17 00:38:51;;;;;;;48.30;27.10;;;;;;;;;;724161;190;919098;-66
2020/12/17 00:41:17;;;;;;;44.93;25.97;;;;;;;;;;718644;190;920398;-65
2020/12/17 00:43:43;;;;;;;47.30;26.43;;;;;;;;;;723722;192;920299;-66
2020/12/17 00:46:09;;;;;;;43.90;26.13;;;;;;;;;;740996;185;931223;-65
2020/12/17 00:48:34;;;;;;;47.78;25.92;;;;;;;;;;724422;189;920578;-66
2020/12/17 00:51:00;;;;;;;51.03;25.97;;;;;;;;;;716298;194;919093;-66
2020/12/17 00:53:26;;;;;;;42.40;24.23;;;;;;;;;;723206;189;918838;-66
2020/12/17 00:55:52;;;;;;;42.30;23.67;;;;;;;;;;716923;193;918944;-66
2020/12/17 00:58:18;;;;;;;47.93;27.17;;;;;;;;;;723744;190;918925;-66
2020/12/17 01:00:44;;;;;;;46.05;26.75;;;;;;;;;;728625;188;917838;-66
2020/12/17 01:03:09;;;;;;;40.50;23.50;;;;;;;;;;732251;187;917964;-67
2020/12/17 01:05:35;;;;;;;40.47;25.80;;;;;;;;;;722219;190;918694;-68
2020/12/17 01:08:01;;;;;;;40.17;25.20;;;;;;;;;;715607;193;921496;-67
2020/12/17 01:10:27;;;;;;;44.43;26.03;;;;;;;;;;726854;188;919041;-66
2020/12/17 01:12:53;;;;;;;50.03;27.03;;;;;;;;;;737916;184;916978;-67
2020/12/17 01:15:19;;;;;;;52.77;28.17;;;;;;;;;;746669;185;618773;-66
2020/12/17 01:17:45;;;;;;;39.93;27.50;;;;;;;;;;727079;190;616696;-67
2020/12/17 01:20:10;;;;;;;45.57;25.50;;;;;;;;;;726085;190;628680;-66
2020/12/17 01:22:36;;;;;;;48.50;26.70;;;;;;;;;;724306;193;625770;-66
2020/12/17 01:25:02;;;;;;;48.50;28.30;;;;;;;;;;711059;193;919196;-66
2020/12/17 01:27:28;;;;;;;51.97;28.83;;;;;;;;;;724296;190;920192;-67
2020/12/17 01:29:54;;;;;;;53.47;30.17;;;;;;;;;;713016;193;918491;-66
2020/12/17 01:32:20;;;;;;;51.30;28.00;;;;;;;;;;719774;192;915949;-66
2020/12/17 01:34:45;;;;;;;49.73;27.77;;;;;;;;;;716100;189;916388;-66
2020/12/17 01:37:11;;;;;;;49.10;27.23;;;;;;;;;;742077;188;916319;-66
2020/12/17 01:39:37;;;;;;;50.70;28.47;;;;;;;;;;738670;186;913617;-66
2020/12/17 01:42:03;;;;;;;49.17;28.33;;;;;;;;;;743038;185;918748;-67
2020/12/17 01:44:29;;;;;;;47.03;29.83;;;;;;;;;;744950;185;919198;-67
2020/12/17 01:46:55;;;;;;;54.67;28.50;;;;;;;;;;742263;186;918714;-66
2020/12/17 01:49:21;;;;;;;48.30;28.93;;;;;;;;;;721733;189;919296;-67
2020/12/17 01:51:47;;;;;;;51.03;27.73;;;;;;;;;;722946;190;918186;-67
2020/12/17 01:54:13;;;;;;;50.23;29.00;;;;;;;;;;723605;190;919717;-66
2020/12/17 01:56:41;;;;;;;51.10;28.90;;;;;;;;;;727080;188;918599;-66
2020/12/17 01:59:08;;;;;;;46.13;28.07;;;;;;;;;;740430;186;941453;-67
2020/12/17 02:01:33;;;;;;;46.07;26.13;;;;;;;;;;738631;184;918906;-66
2020/12/17 02:03:59;;;;;;;49.65;26.17;;;;;;;;;;747329;186;919145;-66
2020/12/17 02:06:25;;;;;;;45.33;25.57;;;;;;;;;;724444;189;918880;-66
2020/12/17 02:08:51;;;;;;;46.90;25.50;;;;;;;;;;728181;190;633153;-66
2020/12/17 02:11:17;;;;;;;44.40;24.87;;;;;;;;;;724616;191;919600;-67
2020/12/17 02:13:43;;;;;;;38.47;24.40;;;;;;;;;;742081;186;919340;-66
2020/12/17 02:16:09;;;;;;;42.27;25.63;;;;;;;;;;721493;190;1021058;-67
2020/12/17 02:18:34;;;;;;;46.37;25.13;;;;;;;;;;705780;195;919161;-67
2020/12/17 02:21:00;;;;;;;46.83;29.03;;;;;;;;;;740531;188;1059204;-67
2020/12/17 02:23:26;;;;;;;40.03;24.23;;;;;;;;;;744500;184;919372;-67
2020/12/17 02:25:52;;;;;;;51.33;28.10;;;;;;;;;;726698;189;919502;-66
2020/12/17 02:28:18;;;;;;;54.27;27.23;;;;;;;;;;744753;184;919475;-66
2020/12/17 02:30:45;;;;;;;45.67;24.73;;;;;;;;;;728241;189;1022519;-66
2020/12/17 02:33:11;;;;;;;45.30;26.92;;;;;;;;;;728935;189;918886;-66
2020/12/17 02:35:37;;;;;;;46.60;28.47;;;;;;;;;;730121;190;919274;-67
2020/12/17 02:38:02;;;;;;;43.57;26.63;;;;;;;;;;721282;190;919113;-66
2020/12/17 02:40:28;;;;;;;46.87;27.17;;;;;;;;;;725096;189;918921;-67
2020/12/17 02:42:54;;;;;;;45.17;26.80;;;;;;;;;;719780;188;1385594;-65
2020/12/17 02:45:20;;;;;;;44.97;25.37;;;;;;;;;;714876;192;919301;-66
2020/12/17 02:47:46;;;;;;;55.27;26.57;;;;;;;;;;717703;193;624492;-67
2020/12/17 02:50:13;;;;;;;44.60;24.43;;;;;;;;;;732248;190;617702;-67
2020/12/17 02:52:37;;;;;;;42.20;25.40;;;;;;;;;;714176;196;626760;-66
2020/12/17 02:55:03;;;;;;;45.27;25.20;;;;;;;;;;752129;184;628573;-66
2020/12/17 02:57:29;;;;;;;46.20;25.07;;;;;;;;;;725188;189;918400;-67
2020/12/17 02:59:55;;;;;;;50.53;27.00;;;;;;;;;;724441;191;918821;-66
2020/12/17 03:02:21;;;;;;;51.70;26.08;;;;;;;;;;721800;189;925264;-66
2020/12/17 03:04:47;;;;;;;42.63;25.37;;;;;;;;;;741506;186;922886;-66
2020/12/17 03:07:14;;;;;;;43.95;26.50;;;;;;;;;;740941;186;920323;-67
2020/12/17 03:09:40;;;;;;;48.70;25.37;;;;;;;;;;741201;186;934602;-67
2020/12/17 03:12:06;;;;;;;40.83;23.90;;;;;;;;;;740897;185;919632;-66
2020/12/17 03:14:31;;;;;;;42.62;25.23;;;;;;;;;;733441;188;915526;-66
2020/12/17 03:16:57;;;;;;;42.43;23.80;;;;;;;;;;739625;188;913956;-66
2020/12/17 03:19:23;;;;;;;56.60;25.13;;;;;;;;;;732124;188;915348;-66
2020/12/17 03:21:50;;;;;;;40.07;24.27;;;;;;;;;;733589;189;918600;-67
2020/12/17 03:24:16;;;;;;;46.30;25.47;;;;;;;;;;736205;188;894173;-66
2020/12/17 03:26:41;;;;;;;48.70;25.67;;;;;;;;;;738586;188;919327;-66
2020/12/17 03:29:07;;;;;;;39.37;24.70;;;;;;;;;;735347;188;918097;-66
2020/12/17 03:31:33;;;;;;;41.87;26.53;;;;;;;;;;741365;189;632765;-66
2020/12/17 03:33:59;;;;;;;44.20;25.80;;;;;;;;;;734907;188;918348;-67
2020/12/17 03:36:25;;;;;;;40.70;23.27;;;;;;;;;;736407;187;927270;-67
2020/12/17 03:38:51;;;;;;;37.57;21.30;;;;;;;;;;733066;187;918784;-66
2020/12/17 03:41:17;;;;;;;37.10;22.93;;;;;;;;;;726289;190;920163;-67
2020/12/17 03:43:42;;;;;;;37.73;21.77;;;;;;;;;;733951;187;919458;-66
2020/12/17 03:46:08;;;;;;;40.27;21.33;;;;;;;;;;737305;188;919248;-65
2020/12/17 03:48:34;;;;;;;39.50;20.53;;;;;;;;;;740363;188;918551;-65
2020/12/17 03:51:00;;;;;;;32.10;19.67;;;;;;;;;;728716;188;1290865;-66
2020/12/17 03:53:26;;;;;;;28.37;17.40;;;;;;;;;;737714;188;917764;-66
2020/12/17 03:55:52;;;;;;;27.87;19.23;;;;;;;;;;735746;188;918088;-67
2020/12/17 03:58:17;;;;;;;31.80;18.40;;;;;;;;;;734008;189;1021546;-66
2020/12/17 04:00:43;;;;;;;31.70;15.93;;;;;;;;;;732826;189;918941;-67
2020/12/17 04:03:09;;;;;;;30.93;15.57;;;;;;;;;;739143;189;919331;-65
2020/12/17 04:05:35;;;;;;;32.63;17.53;;;;;;;;;;734123;188;919122;-67
2020/12/17 04:08:01;;;;;;;28.37;16.03;;;;;;;;;;736344;189;919022;-67
2020/12/17 04:10:27;;;;;;;27.23;16.17;;;;;;;;;;732216;187;1124956;-66
2020/12/17 04:12:52;;;;;;;26.23;15.13;;;;;;;;;;739443;189;918907;-67
2020/12/17 04:15:18;;;;;;;30.93;17.27;;;;;;;;;;732525;189;919769;-67
2020/12/17 04:17:44;;;;;;;29.60;14.47;;;;;;;;;;735723;189;919177;-65
2020/12/17 04:20:10;;;;;;;25.30;16.43;;;;;;;;;;737679;189;918297;-65
2020/12/17 04:22:36;;;;;;;27.77;14.87;;;;;;;;;;735126;188;918293;-67
2020/12/17 04:25:02;;;;;;;26.77;16.10;;;;;;;;;;734758;189;919324;-66
2020/12/17 04:27:27;;;;;;;27.10;16.50;;;;;;;;;;736198;189;919892;-66
2020/12/17 04:29:53;;;;;;;28.77;15.77;;;;;;;;;;734482;189;919289;-66
2020/12/17 04:32:19;;;;;;;28.20;14.73;;;;;;;;;;734260;188;918173;-67
2020/12/17 04:34:45;;;;;;;27.60;15.23;;;;;;;;;;734232;189;920371;-65
2020/12/17 04:37:11;;;;;;;26.70;15.00;;;;;;;;;;728486;190;1107306;-66
2020/12/17 04:39:37;;;;;;;24.50;16.37;;;;;;;;;;729659;191;919278;-66
2020/12/17 04:42:03;;;;;;;21.10;14.63;;;;;;;;;;730654;188;919643;-67
2020/12/17 04:44:29;;;;;;;25.10;14.90;;;;;;;;;;739330;189;918837;-65
2020/12/17 04:46:55;;;;;;;25.17;15.27;;;;;;;;;;731831;188;919398;-65
2020/12/17 04:49:20;;;;;;;28.60;15.97;;;;;;;;;;735086;187;915421;-67
2020/12/17 04:51:47;;;;;;;29.17;15.63;;;;;;;;;;737528;188;916550;-66
2020/12/17 04:54:13;;;;;;;28.53;15.43;;;;;;;;;;736242;187;919577;-66
2020/12/17 04:56:39;;;;;;;31.17;18.00;;;;;;;;;;734366;188;914234;-67
2020/12/17 04:59:05;;;;;;;26.93;16.63;;;;;;;;;;738260;188;918127;-66
2020/12/17 05:01:31;;;;;;;29.90;16.40;;;;;;;;;;733494;188;918890;-67
2020/12/17 05:03:58;;;;;;;31.50;18.80;;;;;;;;;;736427;187;916697;-67
2020/12/17 05:06:24;;;;;;;28.50;16.87;;;;;;;;;;733755;188;919330;-65
2020/12/17 05:08:49;;;;;;;28.87;15.70;;;;;;;;;;740118;188;618931;-67
2020/12/17 05:11:15;;;;;;;33.30;19.07;;;;;;;;;;734878;189;919273;-66
2020/12/17 05:13:41;;;;;;;27.50;16.30;;;;;;;;;;735746;187;919221;-67
2020/12/17 05:16:07;;;;;;;28.80;16.53;;;;;;;;;;739898;189;918590;-66
2020/12/17 05:18:33;;;;;;;27.10;16.10;;;;;;;;;;733899;188;1113659;-67
2020/12/17 05:21:00;;;;;;;25.93;15.73;;;;;;;;;;735244;188;918928;-66
2020/12/17 05:23:26;;;;;;;24.73;17.50;;;;;;;;;;736190;187;915974;-66
2020/12/17 05:25:52;;;;;;;29.37;18.23;;;;;;;;;;732315;189;918536;-67
2020/12/17 05:28:17;;;;;;;29.27;17.95;;;;;;;;;;731328;188;921661;-65
2020/12/17 05:30:43;;;;;;;30.00;18.13;;;;;;;;;;733685;188;915627;-67
2020/12/17 05:33:09;;;;;;;35.20;18.77;;;;;;;;;;737432;189;914882;-66
2020/12/17 05:35:35;;;;;;;28.50;17.53;;;;;;;;;;734071;189;929174;-67
2020/12/17 05:38:02;;;;;;;32.03;17.33;;;;;;;;;;732203;189;919008;-66
2020/12/17 05:40:27;;;;;;;31.03;16.60;;;;;;;;;;739526;188;909344;-66
2020/12/17 05:42:53;;;;;;;26.02;16.45;;;;;;;;;;735582;189;919371;-66
2020/12/17 05:45:22;;;;;;;31.00;17.90;;;;;;;;;;732424;188;918950;-64
2020/12/17 05:47:48;;;;;;;27.30;16.57;;;;;;;;;;733546;189;919446;-66
2020/12/17 05:50:14;;;;;;;34.57;18.17;;;;;;;;;;729906;190;918047;-66
2020/12/17 05:52:40;;;;;;;29.50;17.87;;;;;;;;;;729113;189;1080135;-67
2020/12/17 05:55:05;;;;;;;32.70;18.70;;;;;;;;;;730063;189;919268;-65
2020/12/17 05:57:31;;;;;;;31.07;16.60;;;;;;;;;;741922;188;943548;-66
2020/12/17 06:00:01;;;;;;;30.93;17.80;;;;;;;;;;734613;186;921291;-66
2020/12/17 06:02:28;;;;;;;28.37;16.53;;;;;;;;;;737659;188;918364;-67
2020/12/17 06:04:58;;;;;;;29.50;17.80;;;;;;;;;;737419;188;965933;-66
2020/12/17 06:07:24;;;;;;;28.23;17.03;;;;;;;;;;736171;190;919347;-66
2020/12/17 06:09:50;;;;;;;25.43;16.13;;;;;;;;;;726854;188;919149;-66
2020/12/17 06:12:16;;;;;;;29.57;16.77;;;;;;;;;;734830;188;918190;-67
2020/12/17 06:14:42;;;;;;;27.23;16.93;;;;;;;;;;739140;188;919122;-65
2020/12/17 06:17:08;;;;;;;28.77;16.57;;;;;;;;;;732709;188;919191;-66
2020/12/17 06:19:35;;;;;;;25.57;16.77;;;;;;;;;;733056;189;918999;-66
2020/12/17 06:22:01;;;;;;;29.97;17.20;;;;;;;;;;739847;189;918930;-67
2020/12/17 06:24:27;;;;;;;30.83;16.80;;;;;;;;;;736615;189;921862;-67
2020/12/17 06:26:55;;;;;;;27.92;17.98;;;;;;;;;;733150;188;1021754;-67
2020/12/17 06:29:19;;;;;;;23.07;13.67;;;;;;;;;;731771;190;918251;-66
2020/12/17 06:31:53;;;;;;;24.73;15.97;;;;;;;;;;736006;187;918685;-66
2020/12/17 06:34:19;;;;;;;26.08;14.60;;;;;;;;;;730818;188;919007;-67
2020/12/17 06:36:45;;;;;;;27.87;14.07;;;;;;;;;;733973;189;918806;-66
2020/12/17 06:39:10;;;;;;;24.63;14.17;;;;;;;;;;735149;189;927146;-66
2020/12/17 06:41:36;;;;;;;24.93;14.20;;;;;;;;;;730408;188;924421;-67
2020/12/17 06:44:17;;;;;;;23.67;15.20;;;;;;;;;;735195;189;922799;-67
2020/12/17 06:46:44;;;;;;;28.33;15.07;;;;;;;;;;732179;188;1130092;-67
2020/12/17 06:49:10;;;;;;;27.80;14.00;;;;;;;;;;736329;189;619502;-66
2020/12/17 06:51:37;;;;;;;27.47;15.63;;;;;;;;;;740132;188;623002;-66
2020/12/17 06:54:03;;;;;;;26.45;16.50;;;;;;;;;;734605;189;916665;-67
2020/12/17 06:56:29;;;;;;;29.07;14.67;;;;;;;;;;728616;189;918936;-67
2020/12/17 06:59:00;;;;;;;26.87;14.60;;;;;;;;;;736908;189;919203;-66
2020/12/17 07:01:26;;;;;;;30.67;17.00;;;;;;;;;;733842;188;919333;-66
2020/12/17 07:03:52;;;;;;;27.60;16.10;;;;;;;;;;732244;189;1030220;-66
2020/12/17 07:06:20;;;;;;;26.77;14.83;;;;;;;;;;735636;188;915130;-67
2020/12/17 07:08:46;;;;;;;24.75;13.55;;;;;;;;;;736199;189;919271;-64
2020/12/17 07:11:18;;;;;;;32.63;16.00;;;;;;;;;;731722;189;977497;-66
2020/12/17 07:13:44;;;;;;;21.77;11.85;;;;;;;;;;732003;187;919795;-66
2020/12/17 07:16:12;;;;;;;23.80;14.47;;;;;;;;;;737765;188;918755;-66
2020/12/17 07:18:38;;;;;;;25.87;15.73;;;;;;;;;;735859;189;859811;-67
2020/12/17 07:21:05;;;;;;;23.30;14.90;;;;;;;;;;730255;188;919479;-66
2020/12/17 07:23:31;;;;;;;29.50;15.10;;;;;;;;;;730670;188;918972;-66
2020/12/17 07:25:56;;;;;;;27.57;17.17;;;;;;;;;;740112;187;919507;-66
2020/12/17 07:28:23;;;;;;;26.27;15.80;;;;;;;;;;734913;187;918815;-66
2020/12/17 07:30:53;;;;;;;37.57;17.10;;;;;;;;;;735353;187;918936;-67
2020/12/17 07:33:25;;;;;;;28.30;15.57;;;;;;;;;;733377;187;1365883;-65
2020/12/17 07:35:51;;;;;;;27.93;16.23;;;;;;;;;;735630;190;918571;-66
2020/12/17 07:38:17;;;;;;;24.70;14.27;;;;;;;;;;725860;189;919499;-66
2020/12/17 07:40:43;;;;;;;24.02;13.80;;;;;;;;;;735705;187;1019209;-66
2020/12/17 07:43:10;;;;;;;29.97;14.50;;;;;;;;;;738293;189;917740;-66
2020/12/17 07:45:36;;;;;;;28.77;15.57;;;;;;;;;;735321;189;918415;-66
2020/12/17 07:48:04;;;;;;;31.80;17.57;;;;;;;;;;732133;189;919017;-68
2020/12/17 07:50:32;;;;;;;24.87;15.57;;;;;;;;;;729337;189;918581;-66
2020/12/17 07:52:58;;;;;;;28.25;16.23;;;;;;;;;;734655;189;917984;-66
2020/12/17 07:55:24;;;;;;;25.30;14.90;;;;;;;;;;732820;189;919583;-66
2020/12/17 07:57:50;;;;;;;29.65;15.23;;;;;;;;;;730872;189;919130;-67
2020/12/17 08:00:16;;;;;;;26.30;14.90;;;;;;;;;;739656;188;918054;-66
2020/12/17 08:02:42;;;;;;;31.87;17.17;;;;;;;;;;734918;189;931131;-65
2020/12/17 08:05:08;;;;;;;26.97;16.23;;;;;;;;;;731822;188;919618;-66
2020/12/17 08:07:33;;;;;;;27.77;16.17;;;;;;;;;;738219;189;911076;-66
2020/12/17 08:09:59;;;;;;;31.70;15.50;;;;;;;;;;730688;189;919842;-66
2020/12/17 08:12:25;;;;;;;32.50;15.03;;;;;;;;;;734454;189;918767;-66
2020/12/17 08:14:52;;;;;;;31.10;16.10;;;;;;;;;;729377;188;918878;-66
2020/12/17 08:17:17;;;;;;;29.83;16.47;;;;;;;;;;737614;188;918408;-66
2020/12/17 08:19:43;;;;;;;27.50;14.47;;;;;;;;;;731492;189;919462;-66
2020/12/17 08:22:09;;;;;;;26.75;14.32;;;;;;;;;;733530;189;919414;-66
2020/12/17 08:24:35;;;;;;;25.10;14.70;;;;;;;;;;734606;188;919276;-66
2020/12/17 08:27:01;;;;;;;25.80;13.83;;;;;;;;;;736853;187;919285;-66
2020/12/17 08:29:26;;;;;;;27.00;14.80;;;;;;;;;;734034;188;918584;-66
2020/12/17 08:31:52;;;;;;;26.73;16.43;;;;;;;;;;738723;188;918659;-66
2020/12/17 08:34:18;;;;;;;31.97;17.97;;;;;;;;;;738152;188;919132;-65
2020/12/17 08:36:44;;;;;;;26.53;17.00;;;;;;;;;;734689;188;918697;-66
2020/12/17 08:39:10;;;;;;;25.67;15.27;;;;;;;;;;735202;188;919221;-66
2020/12/17 08:41:36;;;;;;;22.50;13.83;;;;;;;;;;726576;188;943316;-66
2020/12/17 08:44:02;;;;;;;21.53;12.87;;;;;;;;;;727560;190;919000;-65
2020/12/17 08:46:27;;;;;;;19.03;11.70;;;;;;;;;;731998;188;918950;-65
2020/12/17 08:48:53;;;;;;;20.00;12.00;;;;;;;;;;741795;188;919077;-66
2020/12/17 08:51:19;;;;;;;18.57;11.90;;;;;;;;;;733605;188;919327;-67
2020/12/17 08:53:45;;;;;;;18.70;10.93;;;;;;;;;;734567;188;919163;-67
2020/12/17 08:56:12;;;;;;;12.60;8.53;;;;;;;;;;738567;187;915836;-66
2020/12/17 08:58:43;;;;;;;17.40;10.37;;;;;;;;;;735628;188;919079;-66
2020/12/17 09:01:14;;;;;;;16.77;10.43;;;;;;;;;;734629;188;918873;-66
2020/12/17 09:03:41;;;;;;;18.63;11.23;;;;;;;;;;737542;189;918039;-67
2020/12/17 09:06:07;;;;;;;20.73;11.87;;;;;;;;;;737883;189;919019;-69
2020/12/17 09:08:33;;;;;;;21.40;12.77;;;;;;;;;;734545;189;918278;-67
2020/12/17 09:11:00;;;;;;;19.20;12.17;;;;;;;;;;734641;188;936965;-66
2020/12/17 09:13:25;;;;;;;18.17;11.68;;;;;;;;;;733955;189;915406;-66
2020/12/17 09:15:55;;;;;;;18.87;12.10;;;;;;;;;;735972;189;917180;-66
2020/12/17 09:18:21;;;;;;;21.43;12.63;;;;;;;;;;728224;189;917951;-66
2020/12/17 09:20:47;;;;;;;20.40;13.27;;;;;;;;;;731383;188;913572;-66
2020/12/17 09:23:12;;;;;;;21.27;11.93;;;;;;;;;;735266;189;1246104;-66
2020/12/17 09:25:38;;;;;;;19.70;11.60;;;;;;;;;;732771;189;919620;-65
2020/12/17 09:28:04;;;;;;;20.60;11.95;;;;;;;;;;733598;188;920531;-65
2020/12/17 09:30:30;;;;;;;23.20;12.07;;;;;;;;;;741375;188;919640;-65
2020/12/17 09:32:56;;;;;;;15.33;9.57;;;;;;;;;;731330;188;972988;-67
2020/12/17 09:35:22;;;;;;;20.83;12.30;;;;;;;;;;733324;188;915729;-67
2020/12/17 09:37:53;;;;;;;15.87;9.70;;;;;;;;;;733698;187;915831;-66
2020/12/17 09:40:19;;;;;;;13.50;7.70;;;;;;;;;;735252;189;915871;-66
2020/12/17 09:42:45;;;;;;;12.07;7.93;;;;;;;;;;730189;188;918765;-66
2020/12/17 09:45:12;;;;;;;15.33;10.47;;;;;;;;;;737114;188;913329;-66
2020/12/17 09:47:38;;;;;;;25.10;13.57;;;;;;;;;;736281;188;915251;-69
2020/12/17 09:50:06;;;;;;;19.00;11.93;;;;;;;;;;737806;187;917739;-66
2020/12/17 09:52:32;;;;;;;19.97;12.67;;;;;;;;;;735828;187;918784;-65
2020/12/17 09:54:58;;;;;;;19.30;13.30;;;;;;;;;;730237;189;919193;-66
2020/12/17 09:57:24;;;;;;;20.53;11.63;;;;;;;;;;737894;189;918168;-65
2020/12/17 09:59:50;;;;;;;22.85;13.55;;;;;;;;;;732935;189;917807;-66
2020/12/17 10:02:16;;;;;;;21.70;13.43;;;;;;;;;;728726;189;1495609;-67
2020/12/17 10:04:42;;;;;;;15.83;10.83;;;;;;;;;;735754;188;918773;-66
2020/12/17 10:07:08;;;;;;;18.17;11.57;;;;;;;;;;737139;187;915179;-66
2020/12/17 10:09:34;;;;;;;19.60;11.20;;;;;;;;;;700610;188;5714103;-66
2020/12/17 10:12:00;;;;;;;19.97;10.83;;;;;;;;;;734407;190;918874;-67
2020/12/17 10:14:26;;;;;;;18.33;10.50;;;;;;;;;;732201;188;919901;-66
2020/12/17 10:16:51;;;;;;;18.30;12.43;;;;;;;;;;736161;188;918976;-66
2020/12/17 10:19:18;;;;;;;15.60;9.97;;;;;;;;;;730398;189;918885;-66
2020/12/17 10:21:44;;;;;;;27.50;12.88;;;;;;;;;;738006;189;914538;-67
2020/12/17 10:24:09;;;;;;;18.90;11.20;;;;;;;;;;728825;188;1009548;-65
2020/12/17 10:26:35;;;;;;;17.65;11.93;;;;;;;;;;735554;188;915800;-65
2020/12/17 10:29:01;;;;;;;17.60;11.63;;;;;;;;;;740896;189;921500;-65
2020/12/17 10:31:27;;;;;;;23.53;12.07;;;;;;;;;;725268;187;2710897;-67
2020/12/17 10:33:52;;;;;;;14.90;9.80;;;;;;;;;;735688;189;919448;-65
2020/12/17 10:36:18;;;;;;;17.67;11.17;;;;;;;;;;736855;188;919324;-66
2020/12/17 10:38:44;;;;;;;16.40;11.77;;;;;;;;;;730685;189;917896;-65
2020/12/17 10:41:11;;;;;;;16.80;10.80;;;;;;;;;;727683;189;917787;-67
2020/12/17 10:43:36;;;;;;;18.30;10.00;;;;;;;;;;739976;189;918479;-66
2020/12/17 10:46:02;;;;;;;19.75;11.25;;;;;;;;;;723609;190;922051;-66
2020/12/17 10:48:28;;;;;;;16.17;10.40;;;;;;;;;;737325;188;918883;-67
2020/12/17 10:50:53;;;;;;;19.33;11.80;;;;;;;;;;734622;187;1141434;-67
2020/12/17 10:53:19;;;;;;;15.53;9.80;;;;;;;;;;741347;188;919315;-65
2020/12/17 10:55:45;;;;;;;15.23;10.77;;;;;;;;;;732202;188;918136;-66
2020/12/17 10:58:12;;;;;;;13.13;9.03;;;;;;;;;;735535;188;930461;-66
2020/12/17 11:00:37;;;;;;;14.53;9.17;;;;;;;;;;735433;187;938495;-66
2020/12/17 11:03:05;;;;;;;13.10;8.93;;;;;;;;;;735146;188;921530;-66
2020/12/17 11:05:30;;;;;;;11.80;8.93;;;;;;;;;;737517;188;1022436;-66
2020/12/17 11:07:55;;;;;;;13.23;9.07;;;;;;;;;;733511;189;920110;-66
2020/12/17 11:10:21;;;;;;;15.10;10.40;;;;;;;;;;736610;188;918721;-66
2020/12/17 11:12:47;;;;;;;12.67;8.57;;;;;;;;;;734629;188;922485;-66
2020/12/17 11:15:13;;;;;;;14.20;9.33;;;;;;;;;;732909;189;918792;-66
2020/12/17 11:17:39;;;;;;;13.33;8.37;;;;;;;;;;721679;189;918311;-66
2020/12/17 11:20:05;;;;;;;11.30;6.57;;;;;;;;;;730073;189;916898;-66
2020/12/17 11:22:30;;;;;;;12.90;8.03;;;;;;;;;;730062;189;1010321;-67
2020/12/17 11:24:56;;;;;;;13.87;8.50;;;;;;;;;;738818;189;919112;-67
2020/12/17 11:27:22;;;;;;;8.47;6.80;;;;;;;;;;733620;189;920727;-66
2020/12/17 11:29:48;;;;;;;11.57;7.50;;;;;;;;;;732904;189;919170;-66
2020/12/17 11:32:14;;;;;;;12.17;7.70;;;;;;;;;;737369;188;918544;-65
2020/12/17 11:34:40;;;;;;;14.00;8.97;;;;;;;;;;734896;188;918986;-66
2020/12/17 11:37:05;;;;;;;11.87;7.60;;;;;;;;;;734892;187;926137;-66
2020/12/17 11:39:31;;;;;;;10.60;7.67;;;;;;;;;;737325;189;950694;-66
2020/12/17 11:41:57;;;;;;;13.53;9.27;;;;;;;;;;732905;188;918214;-66
2020/12/17 11:44:25;;;;;;;10.83;8.23;;;;;;;;;;731963;188;919146;-65
2020/12/17 11:46:49;;;;;;;12.80;8.40;;;;;;;;;;734058;188;918686;-66
2020/12/17 11:49:15;;;;;;;12.30;8.30;;;;;;;;;;737543;188;845144;-64
2020/12/17 11:51:41;;;;;;;14.60;8.40;;;;;;;;;;731487;188;919373;-67
2020/12/17 11:54:07;;;;;;;14.70;9.83;;;;;;;;;;731708;188;918861;-66
2020/12/17 11:56:33;;;;;;;15.43;8.83;;;;;;;;;;737490;189;918706;-66
2020/12/17 11:58:59;;;;;;;11.23;7.97;;;;;;;;;;733517;187;919709;-67
2020/12/17 12:01:28;;;;;;;12.47;8.07;;;;;;;;;;732950;188;919780;-67
2020/12/17 12:03:54;;;;;;;20.30;11.70;;;;;;;;;;731413;188;918835;-67
2020/12/17 12:06:20;;;;;;;19.97;11.43;;;;;;;;;;720598;188;918735;-66
2020/12/17 12:08:46;;;;;;;24.10;14.60;;;;;;;;;;725284;188;918746;-66
2020/12/17 12:11:11;;;;;;;21.30;14.53;;;;;;;;;;735893;187;919012;-64
2020/12/17 12:13:37;;;;;;;21.23;13.77;;;;;;;;;;741531;187;919090;-66
2020/12/17 12:16:03;;;;;;;20.47;13.37;;;;;;;;;;735584;188;919093;-66
2020/12/17 12:18:29;;;;;;;23.73;14.45;;;;;;;;;;731083;187;919324;-66
2020/12/17 12:20:57;;;;;;;23.30;14.77;;;;;;;;;;740461;188;918408;-66
2020/12/17 12:23:21;;;;;;;23.13;14.53;;;;;;;;;;737529;187;919424;-67
2020/12/17 12:25:47;;;;;;;27.27;15.32;;;;;;;;;;726474;188;920524;-66
2020/12/17 12:28:13;;;;;;;22.70;13.80;;;;;;;;;;739935;189;918649;-66
2020/12/17 12:30:39;;;;;;;23.87;14.00;;;;;;;;;;734719;188;915138;-67
2020/12/17 12:33:04;;;;;;;25.60;15.80;;;;;;;;;;739224;189;918887;-65
2020/12/17 12:35:30;;;;;;;23.37;13.47;;;;;;;;;;730703;189;919061;-66
2020/12/17 12:37:56;;;;;;;24.60;13.83;;;;;;;;;;736965;189;922894;-65
2020/12/17 12:40:22;;;;;;;24.43;14.80;;;;;;;;;;733321;189;918911;-66
2020/12/17 12:42:48;;;;;;;21.43;13.30;;;;;;;;;;734567;189;919137;-65
2020/12/17 12:45:14;;;;;;;17.53;12.90;;;;;;;;;;733591;188;1801739;-65
2020/12/17 12:47:40;;;;;;;18.85;11.23;;;;;;;;;;731418;189;919014;-65
2020/12/17 12:50:05;;;;;;;19.73;12.50;;;;;;;;;;730706;189;919782;-66
2020/12/17 12:52:31;;;;;;;21.90;12.53;;;;;;;;;;740477;189;917888;-65
2020/12/17 12:54:57;;;;;;;23.60;14.77;;;;;;;;;;734518;188;920631;-68
2020/12/17 12:57:23;;;;;;;23.77;13.70;;;;;;;;;;731980;189;918833;-65
2020/12/17 12:59:49;;;;;;;15.40;10.50;;;;;;;;;;734196;188;915707;-66
2020/12/17 13:02:15;;;;;;;22.57;12.73;;;;;;;;;;732211;189;915599;-66
2020/12/17 13:04:40;;;;;;;20.70;11.80;;;;;;;;;;736451;189;919322;-67
2020/12/17 13:07:06;;;;;;;22.55;13.15;;;;;;;;;;725730;188;2240179;-66
2020/12/17 13:09:32;;;;;;;19.67;13.33;;;;;;;;;;740907;186;918793;-66
2020/12/17 13:11:58;;;;;;;20.47;12.27;;;;;;;;;;732961;188;919138;-66
2020/12/17 13:14:24;;;;;;;19.73;11.97;;;;;;;;;;736717;188;919865;-65
2020/12/17 13:16:50;;;;;;;19.47;12.13;;;;;;;;;;737007;188;918030;-66
2020/12/17 13:19:16;;;;;;;24.65;13.30;;;;;;;;;;739328;188;919149;-66
2020/12/17 13:21:42;;;;;;;20.27;13.40;;;;;;;;;;733451;188;918896;-66
2020/12/17 13:24:07;;;;;;;23.37;14.10;;;;;;;;;;740685;188;919086;-66
2020/12/17 13:26:33;;;;;;;22.77;13.20;;;;;;;;;;732302;188;930771;-66
2020/12/17 13:28:59;;;;;;;17.73;11.40;;;;;;;;;;735686;188;919828;-66
2020/12/17 13:31:26;;;;;;;20.80;12.47;;;;;;;;;;732039;188;918592;-66
2020/12/17 13:33:51;;;;;;;20.60;14.30;;;;;;;;;;739337;189;919558;-67
2020/12/17 13:36:18;;;;;;;22.77;13.63;;;;;;;;;;733844;189;919030;-66
2020/12/17 13:38:42;;;;;;;35.27;13.00;;;;;;;;;;731483;188;919532;-66
2020/12/17 13:41:08;;;;;;;25.60;14.13;;;;;;;;;;740681;189;917804;-67
2020/12/17 13:43:34;;;;;;;29.67;13.90;;;;;;;;;;730811;189;918977;-67
2020/12/17 13:46:00;;;;;;;23.95;13.48;;;;;;;;;;732004;189;918833;-66
2020/12/17 13:48:27;;;;;;;29.40;15.87;;;;;;;;;;738464;189;919498;-65
2020/12/17 13:50:53;;;;;;;24.90;14.20;;;;;;;;;;736962;189;918845;-66
2020/12/17 13:53:19;;;;;;;23.55;13.93;;;;;;;;;;734629;189;918951;-66
2020/12/17 13:55:45;;;;;;;20.63;12.40;;;;;;;;;;734081;189;919032;-65
2020/12/17 13:58:11;;;;;;;22.17;14.30;;;;;;;;;;732907;188;911732;-67